Cedar Valley, Iowa
Current Conditions -  °F | °C
As of 4:52 PM on Monday 24 Nov 2014 (Local Time) from KIOW Reporting Station
Light Snow Light Snow  
Wind Chill: 12°   Ceiling: 2500
Heat Index: 25°   Visibility: 1.5mi
Dew Point: 22°   Wind: 16mph
Humidity: 88%   Direction: 270°W
Pressure: 29.75"   Gusts: 28mph
Location:  41.6714°N, 91.2723°W
Report Text: KIOW 242252Z AUTO 27014G24KT 1 1/2SM -SN BR FEW018 OVC025 M04/M06 A2975 RMK AO2 PK WND 27027/2215 SLP080 P0000 T10391056
Loading
Personal Weather Stations






























Interactive Weather Map New forecast layout! Learn more

10-Day Weather Forecast

Advertisements
Track Severe Weather on mobile